createdAt,value
2023-05-18T00:01:44.709Z,73.26
2023-05-18T00:04:12.470Z,75.19
2023-05-18T00:06:40.022Z,71.93
2023-05-18T00:09:07.533Z,74.03
2023-05-18T00:11:39.716Z,76.09
2023-05-18T00:14:08.411Z,77.55
2023-05-18T00:16:36.210Z,76.06
2023-05-18T00:19:05.354Z,76.27
2023-05-18T00:21:33.737Z,72.88
2023-05-18T00:24:01.962Z,76.30
2023-05-18T00:26:30.066Z,79.55
2023-05-18T00:28:57.525Z,81.00
2023-05-18T00:31:24.975Z,83.14
2023-05-18T00:33:52.363Z,83.92
2023-05-18T00:36:19.731Z,80.76
2023-05-18T00:38:47.114Z,79.65
2023-05-18T00:41:14.535Z,79.54
2023-05-18T00:43:42.000Z,81.34
2023-05-18T00:46:09.652Z,82.87
2023-05-18T00:48:37.081Z,84.35
2023-05-18T00:51:05.640Z,86.55
2023-05-18T00:53:33.917Z,87.30
2023-05-18T00:56:01.317Z,88.61
2023-05-18T00:58:29.167Z,88.20
2023-05-18T01:00:57.362Z,85.78
2023-05-18T01:03:26.450Z,85.37
2023-05-18T01:05:58.218Z,83.31
2023-05-18T01:08:28.295Z,80.87
2023-05-18T01:11:42.169Z,77.44
2023-05-18T01:14:30.659Z,77.26
2023-05-18T01:17:29.358Z,81.49
2023-05-18T01:20:29.450Z,78.08
2023-05-18T01:23:01.957Z,79.29
2023-05-18T01:25:54.474Z,81.15
2023-05-18T01:28:28.686Z,81.86
2023-05-18T01:30:56.767Z,81.46
2023-05-18T01:33:27.213Z,81.85
2023-05-18T01:35:54.716Z,82.87
2023-05-18T01:38:27.935Z,81.91
2023-05-18T01:41:24.389Z,82.83
2023-05-18T01:44:12.689Z,83.15
2023-05-18T01:47:14.027Z,84.29
2023-05-18T01:50:09.171Z,83.51
2023-05-18T01:52:42.985Z,82.26
2023-05-18T01:55:14.281Z,82.15
2023-05-18T01:57:45.737Z,80.03
2023-05-18T02:00:13.523Z,80.71
2023-05-18T02:02:41.703Z,81.67
2023-05-18T02:05:12.530Z,80.46
2023-05-18T02:07:40.983Z,80.98
2023-05-18T02:10:09.011Z,81.69
2023-05-18T02:12:36.642Z,82.58
2023-05-18T02:15:05.744Z,82.67
2023-05-18T02:17:34.558Z,83.83
2023-05-18T02:20:02.168Z,82.63
2023-05-18T02:22:29.961Z,80.68
2023-05-18T02:24:57.373Z,82.30
2023-05-18T02:27:24.799Z,85.37
2023-05-18T02:29:52.280Z,81.95
2023-05-18T02:32:19.958Z,83.83
2023-05-18T02:34:50.304Z,81.55
2023-05-18T02:37:17.669Z,78.28
2023-05-18T02:39:45.114Z,77.53
2023-05-18T02:42:13.326Z,77.82
2023-05-18T02:44:42.216Z,79.58
2023-05-18T02:47:09.737Z,79.01
2023-05-18T02:49:37.088Z,78.73
2023-05-18T02:52:04.766Z,81.34
2023-05-18T02:54:32.894Z,81.34
2023-05-18T02:57:00.516Z,81.02
2023-05-18T02:59:27.899Z,79.28
2023-05-18T03:01:55.384Z,80.11
2023-05-18T03:04:25.937Z,80.24
2023-05-18T03:06:53.666Z,80.41
2023-05-18T03:09:21.037Z,81.08
2023-05-18T03:11:48.606Z,81.53
2023-05-18T03:14:16.219Z,79.61
2023-05-18T03:16:43.663Z,79.75
2023-05-18T03:19:14.375Z,80.14
2023-05-18T03:21:42.661Z,79.55
2023-05-18T03:24:10.092Z,80.37
2023-05-18T03:26:39.897Z,80.80
2023-05-18T03:29:07.405Z,82.07
2023-05-18T03:31:35.205Z,81.55
2023-05-18T03:34:02.676Z,79.56
2023-05-18T03:36:30.268Z,77.49
2023-05-18T03:38:57.639Z,78.21
2023-05-18T03:41:25.147Z,76.92
2023-05-18T03:43:52.584Z,76.78
2023-05-18T03:46:20.710Z,75.77
2023-05-18T03:48:48.409Z,77.64
2023-05-18T03:51:16.257Z,76.85
2023-05-18T03:53:44.452Z,73.79
2023-05-18T03:56:13.426Z,74.27
2023-05-18T03:58:42.520Z,74.82
2023-05-18T04:01:10.840Z,74.76
2023-05-18T04:03:38.455Z,74.62
2023-05-18T04:06:06.658Z,74.05
2023-05-18T04:08:34.598Z,73.43
2023-05-18T04:11:02.184Z,71.87
2023-05-18T04:13:29.805Z,71.39
2023-05-18T04:18:37.561Z,68.61
2023-05-18T04:21:06.588Z,69.47
2023-05-18T04:23:39.423Z,68.31
2023-05-18T04:26:07.138Z,68.08
2023-05-18T04:28:35.078Z,68.54
2023-05-18T04:31:02.826Z,68.77
2023-05-18T04:33:30.573Z,69.08
2023-05-18T04:35:59.061Z,68.57
2023-05-18T04:38:26.541Z,68.86
2023-05-18T04:40:57.617Z,68.71
2023-05-18T04:43:25.153Z,68.92
2023-05-18T04:45:52.803Z,68.12
2023-05-18T04:48:20.394Z,68.07
2023-05-18T04:50:47.931Z,67.65
2023-05-18T04:53:18.265Z,66.26
2023-05-18T04:55:46.587Z,66.30
2023-05-18T04:58:15.226Z,66.34
2023-05-18T05:00:43.251Z,67.18
2023-05-18T05:03:10.855Z,66.63
2023-05-18T05:05:38.451Z,66.79
2023-05-18T05:08:06.735Z,66.32
2023-05-18T05:10:34.475Z,66.50
2023-05-18T05:13:01.914Z,65.69
2023-05-18T05:15:31.045Z,65.24
2023-05-18T05:17:59.196Z,65.32
2023-05-18T05:20:26.732Z,65.34
2023-05-18T05:22:54.240Z,61.95
2023-05-18T05:25:21.750Z,61.32
2023-05-18T05:27:49.129Z,61.24
2023-05-18T05:30:16.557Z,61.76
2023-05-18T05:32:44.265Z,61.04
2023-05-18T05:35:11.725Z,60.81
2023-05-18T05:37:39.409Z,60.91
2023-05-18T05:40:07.838Z,60.84
2023-05-18T05:42:35.673Z,59.98
2023-05-18T05:45:03.603Z,60.90
2023-05-18T05:47:33.256Z,59.55
2023-05-18T05:50:00.775Z,60.04
2023-05-18T05:52:29.185Z,59.54
2023-05-18T05:54:56.715Z,58.29
2023-05-18T05:57:24.198Z,56.93
2023-05-18T05:59:51.706Z,55.76
2023-05-18T06:02:19.279Z,52.62
2023-05-18T06:04:46.834Z,54.86
2023-05-18T06:07:14.268Z,53.87
2023-05-18T06:09:42.014Z,49.24
2023-05-18T06:12:09.758Z,49.17
2023-05-18T06:17:04.859Z,46.82
2023-05-18T06:19:32.316Z,46.66
2023-05-18T06:21:59.762Z,46.22
2023-05-18T06:24:27.179Z,46.18
2023-05-18T06:26:54.594Z,44.67
2023-05-18T06:29:22.026Z,45.07
2023-05-18T06:31:49.609Z,44.40
2023-05-18T06:34:17.373Z,44.25
2023-05-18T06:36:44.778Z,43.92
2023-05-18T06:39:12.194Z,43.90
2023-05-18T06:41:39.663Z,43.11
2023-05-18T06:44:07.180Z,41.79
2023-05-18T06:46:34.723Z,40.55
2023-05-18T06:49:02.333Z,39.88
2023-05-18T06:51:30.023Z,41.27
2023-05-18T06:53:57.841Z,40.91
2023-05-18T06:56:25.892Z,39.17
2023-05-18T06:58:53.304Z,38.22
2023-05-18T07:01:20.851Z,38.66
2023-05-18T07:03:48.366Z,37.85
2023-05-18T07:06:15.867Z,37.46
2023-05-18T07:08:44.791Z,37.32
2023-05-18T07:11:12.234Z,37.20
2023-05-18T07:13:40.083Z,37.51
2023-05-18T07:16:07.479Z,36.47
2023-05-18T07:18:35.326Z,37.21
2023-05-18T07:21:02.834Z,37.46
2023-05-18T07:23:30.413Z,36.57
2023-05-18T07:25:57.845Z,36.26
2023-05-18T07:28:25.326Z,36.04
2023-05-18T07:30:52.706Z,35.13
2023-05-18T07:33:20.144Z,35.80
2023-05-18T07:35:47.592Z,36.11
2023-05-18T07:38:14.982Z,35.22
2023-05-18T07:40:42.617Z,34.60
2023-05-18T07:43:10.602Z,34.00
2023-05-18T07:45:38.155Z,34.28
2023-05-18T07:48:07.961Z,33.99
2023-05-18T07:50:37.128Z,34.26
2023-05-18T07:53:04.560Z,34.08
2023-05-18T07:55:32.513Z,35.15
2023-05-18T07:58:03.031Z,34.23
2023-05-18T08:00:31.282Z,34.35
2023-05-18T08:03:00.913Z,32.48
2023-05-18T08:05:28.715Z,34.11
2023-05-18T08:07:56.559Z,32.63
2023-05-18T08:10:24.329Z,32.55
2023-05-18T08:12:52.893Z,33.06
2023-05-18T08:15:20.288Z,33.32
2023-05-18T08:17:47.789Z,33.46
2023-05-18T08:20:15.273Z,31.54
2023-05-18T08:22:42.709Z,32.19
2023-05-18T08:25:10.390Z,31.74
2023-05-18T08:27:37.902Z,32.40
2023-05-18T08:30:05.881Z,32.83
2023-05-18T08:32:37.039Z,32.43
2023-05-18T08:35:08.605Z,32.69
2023-05-18T08:37:37.428Z,33.20
2023-05-18T08:40:07.904Z,31.08
2023-05-18T08:43:00.321Z,30.46
2023-05-18T08:45:36.271Z,31.88
2023-05-18T08:48:05.936Z,31.10
2023-05-18T08:50:34.938Z,30.70
2023-05-18T08:53:06.273Z,30.74
2023-05-18T08:55:37.519Z,30.31
2023-05-18T08:58:09.352Z,30.46
2023-05-18T09:00:37.391Z,29.25
2023-05-18T09:03:06.405Z,30.40
2023-05-18T09:05:34.811Z,30.80
2023-05-18T09:08:03.735Z,29.41
2023-05-18T09:10:33.785Z,28.83
2023-05-18T09:13:05.462Z,28.98
2023-05-18T09:15:35.531Z,29.57
2023-05-18T09:18:03.989Z,28.71
2023-05-18T09:20:31.589Z,27.89
2023-05-18T09:23:00.235Z,28.77
2023-05-18T09:25:30.633Z,28.51
2023-05-18T09:27:58.196Z,27.84
2023-05-18T09:30:25.768Z,27.22
2023-05-18T09:32:53.495Z,27.58
2023-05-18T09:35:21.997Z,28.48
2023-05-18T09:37:50.060Z,27.97
2023-05-18T09:40:19.567Z,27.25
2023-05-18T09:42:48.690Z,27.54
2023-05-18T09:45:24.272Z,28.45
2023-05-18T09:47:52.926Z,28.14
2023-05-18T09:50:24.519Z,27.79
2023-05-18T09:52:52.075Z,27.68
2023-05-18T09:55:20.927Z,29.06
2023-05-18T09:57:50.481Z,27.91
2023-05-18T10:00:20.849Z,27.96
2023-05-18T10:02:52.671Z,26.72
2023-05-18T10:05:27.996Z,26.91
2023-05-18T10:07:56.112Z,26.38
2023-05-18T10:10:26.306Z,26.94
2023-05-18T10:12:56.060Z,27.02
2023-05-18T10:15:24.649Z,26.15
2023-05-18T10:17:56.398Z,25.95
2023-05-18T10:20:26.099Z,27.34
2023-05-18T10:22:55.966Z,26.72
2023-05-18T10:25:26.535Z,25.19
2023-05-18T10:28:07.985Z,25.36
2023-05-18T10:30:36.292Z,25.30
2023-05-18T10:33:11.293Z,24.82
2023-05-18T10:35:46.529Z,25.06
2023-05-18T10:38:25.211Z,25.39
2023-05-18T10:40:55.759Z,24.50
2023-05-18T10:43:28.426Z,24.87
2023-05-18T10:45:58.739Z,25.06
2023-05-18T10:48:28.020Z,24.45
2023-05-18T10:50:57.603Z,24.13
2023-05-18T10:53:29.538Z,24.24
2023-05-18T10:55:57.139Z,24.00
2023-05-18T10:58:27.172Z,23.82
2023-05-18T11:00:57.462Z,23.72
2023-05-18T11:03:27.284Z,22.67
2023-05-18T11:06:12.322Z,22.59
2023-05-18T11:08:50.955Z,23.20
2023-05-18T11:11:23.554Z,23.55
2023-05-18T11:13:54.427Z,23.27
2023-05-18T11:16:34.750Z,23.91
2023-05-18T11:19:07.376Z,23.35
2023-05-18T11:21:41.547Z,23.03
2023-05-18T11:24:31.379Z,23.99
2023-05-18T11:27:03.685Z,23.84
2023-05-18T11:29:36.104Z,24.15
2023-05-18T11:32:05.054Z,25.30
2023-05-18T11:34:46.526Z,24.21
2023-05-18T11:37:38.341Z,24.44
2023-05-18T11:40:11.343Z,24.19
2023-05-18T11:42:39.522Z,23.35
2023-05-18T11:45:08.284Z,23.56
2023-05-18T11:47:37.087Z,23.26
2023-05-18T11:50:08.542Z,23.86
2023-05-18T11:52:47.489Z,23.27
2023-05-18T11:55:17.130Z,23.87
2023-05-18T11:57:47.725Z,25.73
2023-05-18T12:00:16.415Z,24.21
2023-05-18T12:02:45.966Z,24.54
2023-05-18T12:05:14.907Z,24.24
2023-05-18T12:07:44.991Z,24.83
2023-05-18T12:10:17.712Z,25.55
2023-05-18T12:12:49.384Z,25.32
2023-05-18T12:15:17.588Z,25.18
2023-05-18T12:17:49.808Z,25.89
2023-05-18T12:20:22.712Z,25.83
2023-05-18T12:22:54.766Z,26.56
2023-05-18T12:25:24.291Z,25.46
2023-05-18T12:27:53.282Z,26.16
2023-05-18T12:30:34.476Z,24.49
2023-05-18T12:33:02.722Z,23.07
2023-05-18T12:35:31.386Z,23.19
2023-05-18T12:38:00.899Z,22.47
2023-05-18T12:40:46.657Z,22.29
2023-05-18T12:43:14.371Z,22.78
2023-05-18T12:45:44.687Z,22.41
2023-05-18T12:48:13.287Z,22.38
2023-05-18T12:50:53.290Z,21.94
2023-05-18T12:53:20.996Z,22.04
2023-05-18T12:55:59.716Z,21.71
2023-05-18T12:58:27.382Z,22.60
2023-05-18T13:00:54.992Z,22.48
2023-05-18T13:03:22.919Z,22.15
2023-05-18T13:06:07.488Z,21.95
2023-05-18T13:08:36.797Z,21.04
2023-05-18T13:11:13.519Z,20.75
2023-05-18T13:14:04.262Z,20.81
2023-05-18T13:16:34.189Z,20.07
2023-05-18T13:19:04.455Z,21.48
2023-05-18T13:21:32.593Z,21.94
2023-05-18T13:24:03.595Z,22.70
2023-05-18T13:26:31.542Z,22.07
2023-05-18T13:29:00.321Z,22.94
2023-05-18T13:31:29.838Z,23.31
2023-05-18T13:33:57.873Z,23.28
2023-05-18T13:36:26.165Z,23.06
2023-05-18T13:38:54.252Z,22.95
2023-05-18T13:41:21.710Z,22.82
2023-05-18T13:43:49.616Z,22.37
2023-05-18T13:46:18.841Z,21.46
2023-05-18T13:48:46.376Z,22.28
2023-05-18T13:51:14.217Z,21.74
2023-05-18T13:53:41.830Z,20.20
2023-05-18T13:56:09.393Z,20.55
2023-05-18T13:58:36.857Z,19.89
2023-05-18T14:01:08.069Z,21.04
2023-05-18T14:03:36.811Z,21.51
2023-05-18T14:06:04.595Z,22.03
2023-05-18T14:08:32.223Z,21.95
2023-05-18T14:10:59.795Z,21.69
2023-05-18T14:13:27.289Z,21.90
2023-05-18T14:15:54.894Z,22.66
2023-05-18T14:18:22.486Z,22.44
2023-05-18T14:20:49.896Z,23.12
2023-05-18T14:23:17.263Z,22.71
2023-05-18T14:25:46.000Z,23.41
2023-05-18T14:28:13.666Z,22.83
2023-05-18T14:30:41.627Z,23.50
2023-05-18T14:33:09.223Z,23.32
2023-05-18T14:35:36.811Z,23.15
2023-05-18T14:38:05.865Z,23.40
2023-05-18T14:40:33.936Z,23.72
2023-05-18T14:43:01.307Z,22.93
2023-05-18T14:45:29.321Z,23.73
2023-05-18T14:47:56.856Z,23.68
2023-05-18T14:50:24.476Z,24.24
2023-05-18T14:52:52.388Z,24.80
2023-05-18T14:55:19.927Z,23.72
2023-05-18T14:57:47.448Z,24.00
2023-05-18T15:00:15.309Z,23.64
2023-05-18T15:02:43.488Z,24.20
2023-05-18T15:05:11.514Z,24.31
2023-05-18T15:07:38.980Z,24.46
2023-05-18T15:10:07.040Z,24.66
2023-05-18T15:12:34.973Z,24.44
2023-05-18T15:15:02.643Z,24.21
2023-05-18T15:17:30.519Z,25.49
2023-05-18T15:19:57.972Z,25.25
2023-05-18T15:22:25.449Z,25.01
2023-05-18T15:24:52.936Z,24.89
2023-05-18T15:27:20.350Z,25.25
2023-05-18T15:29:48.596Z,25.18
2023-05-18T15:32:16.330Z,25.04
2023-05-18T15:34:43.831Z,24.79
2023-05-18T15:37:11.248Z,25.08
2023-05-18T15:39:38.902Z,25.42
2023-05-18T15:42:06.884Z,25.12
2023-05-18T15:44:34.758Z,25.35
2023-05-18T15:47:02.224Z,25.15
2023-05-18T15:49:30.138Z,26.22
2023-05-18T15:51:57.739Z,26.16
2023-05-18T15:54:25.200Z,26.53
2023-05-18T15:56:52.850Z,26.59
2023-05-18T15:59:20.404Z,26.75
2023-05-18T16:01:48.830Z,26.85
2023-05-18T16:04:16.344Z,27.26
2023-05-18T16:06:43.852Z,27.89
2023-05-18T16:09:11.344Z,28.02
2023-05-18T16:11:38.799Z,27.04
2023-05-18T16:14:06.837Z,27.08
2023-05-18T16:16:34.395Z,27.23
2023-05-18T16:19:02.481Z,28.16
2023-05-18T16:21:30.286Z,27.91
2023-05-18T16:23:57.697Z,27.82
2023-05-18T16:26:26.237Z,27.66
2023-05-18T16:28:53.891Z,27.88
2023-05-18T16:31:21.472Z,28.51
2023-05-18T16:33:49.336Z,28.38
2023-05-18T16:36:17.198Z,28.87
2023-05-18T16:38:44.735Z,29.46
2023-05-18T16:41:12.825Z,29.44
2023-05-18T16:43:40.325Z,29.69
2023-05-18T16:46:07.800Z,29.93
2023-05-18T16:48:35.805Z,30.03
2023-05-18T16:51:06.872Z,30.64
2023-05-18T16:53:34.765Z,30.58
2023-05-18T16:56:03.511Z,31.26
2023-05-18T16:58:31.276Z,31.22
2023-05-18T17:00:58.864Z,31.30
2023-05-18T17:03:27.652Z,31.92
2023-05-18T17:05:55.182Z,32.27
2023-05-18T17:08:23.506Z,32.53
2023-05-18T17:10:50.975Z,32.26
2023-05-18T17:13:18.472Z,33.28
2023-05-18T17:15:46.005Z,33.33
2023-05-18T17:18:13.844Z,34.17
2023-05-18T17:20:41.401Z,34.16
2023-05-18T17:23:09.025Z,34.52
2023-05-18T17:25:36.916Z,34.77
2023-05-18T17:28:04.644Z,34.77
2023-05-18T17:30:32.425Z,34.38
2023-05-18T17:33:00.206Z,35.58
2023-05-18T17:35:27.741Z,35.58
2023-05-18T17:37:55.968Z,35.69
2023-05-18T17:40:23.828Z,35.83
2023-05-18T17:42:51.322Z,36.07
2023-05-18T17:45:18.961Z,35.80
2023-05-18T17:47:46.559Z,36.17
2023-05-18T17:50:14.228Z,37.68
2023-05-18T17:52:41.830Z,36.70
2023-05-18T17:55:10.462Z,35.65
2023-05-18T17:57:46.725Z,35.80
2023-05-18T18:00:14.860Z,36.43
2023-05-18T18:02:42.678Z,36.48
2023-05-18T18:05:10.311Z,37.21
2023-05-18T18:07:39.386Z,36.78
2023-05-18T18:10:07.678Z,37.31
2023-05-18T18:12:36.138Z,37.22
2023-05-18T18:15:03.998Z,37.81
2023-05-18T18:17:32.118Z,38.35
2023-05-18T18:19:59.542Z,37.77
2023-05-18T18:22:29.150Z,37.59
2023-05-18T18:24:56.788Z,38.29
2023-05-18T18:27:24.210Z,38.01
2023-05-18T18:29:51.633Z,37.93
2023-05-18T18:32:19.222Z,38.56
2023-05-18T18:34:46.703Z,38.52
2023-05-18T18:37:14.150Z,39.03
2023-05-18T18:39:41.679Z,38.62
2023-05-18T18:42:09.043Z,38.77
2023-05-18T18:44:36.490Z,38.66
2023-05-18T18:47:04.227Z,38.26
2023-05-18T18:49:31.710Z,38.41
2023-05-18T18:51:59.357Z,37.93
2023-05-18T18:54:27.225Z,38.11
2023-05-18T18:56:54.704Z,38.15
2023-05-18T18:59:22.075Z,37.91
2023-05-18T19:01:50.059Z,37.78
2023-05-18T19:04:18.986Z,37.95
2023-05-18T19:06:48.502Z,38.03
2023-05-18T19:09:16.115Z,38.64
2023-05-18T19:11:43.553Z,37.97
2023-05-18T19:14:11.290Z,38.36
2023-05-18T19:16:39.027Z,38.08
2023-05-18T19:19:09.076Z,37.61
2023-05-18T19:21:36.901Z,37.42
2023-05-18T19:24:05.327Z,37.64
2023-05-18T19:26:33.493Z,38.07
2023-05-18T19:29:01.220Z,37.70
2023-05-18T19:31:31.767Z,37.79
2023-05-18T19:34:00.226Z,38.10
2023-05-18T19:36:28.192Z,38.14
2023-05-18T19:38:56.006Z,38.32
2023-05-18T19:41:24.742Z,38.92
2023-05-18T19:43:53.405Z,38.67
2023-05-18T19:46:20.977Z,38.77
2023-05-18T19:48:48.608Z,38.87
2023-05-18T19:51:16.215Z,38.94
2023-05-18T19:53:44.843Z,37.98
2023-05-18T19:56:12.511Z,38.32
2023-05-18T19:58:40.173Z,38.33
2023-05-18T20:01:10.133Z,39.19
2023-05-18T20:03:40.841Z,38.38
2023-05-18T20:06:11.291Z,37.91
2023-05-18T20:08:38.984Z,38.52
2023-05-18T20:11:06.604Z,39.07
2023-05-18T20:13:34.198Z,38.44
2023-05-18T20:16:05.821Z,38.48
2023-05-18T20:18:35.076Z,39.17
2023-05-18T20:21:03.053Z,40.09
2023-05-18T20:23:30.660Z,41.47
2023-05-18T20:25:58.374Z,42.66
2023-05-18T20:28:27.212Z,42.97
2023-05-18T20:30:54.716Z,44.28
2023-05-18T20:33:22.762Z,43.99
2023-05-18T20:35:50.244Z,44.65
2023-05-18T20:38:18.074Z,44.80
2023-05-18T20:40:46.420Z,45.09
2023-05-18T20:43:18.172Z,45.70
2023-05-18T20:45:46.593Z,45.43
2023-05-18T20:48:16.795Z,45.21
2023-05-18T20:50:44.599Z,46.24
2023-05-18T20:53:12.090Z,47.27
2023-05-18T20:55:40.502Z,46.20
2023-05-18T20:58:10.496Z,46.42
2023-05-18T21:00:37.897Z,46.78
2023-05-18T21:03:05.393Z,46.25
2023-05-18T21:05:33.511Z,46.41
2023-05-18T21:08:00.913Z,46.51
2023-05-18T21:10:28.338Z,47.53
2023-05-18T21:12:56.110Z,46.50
2023-05-18T21:15:23.617Z,47.15
2023-05-18T21:17:51.135Z,46.52
2023-05-18T21:20:18.847Z,47.32
2023-05-18T21:22:46.685Z,47.95
2023-05-18T21:25:15.663Z,48.41
2023-05-18T21:27:43.147Z,49.25
2023-05-18T21:30:12.315Z,49.66
2023-05-18T21:32:41.019Z,51.29
2023-05-18T21:35:08.563Z,50.58
2023-05-18T21:37:37.051Z,50.59
2023-05-18T21:40:05.056Z,51.65
2023-05-18T21:42:33.382Z,51.46
2023-05-18T21:45:01.000Z,51.24
2023-05-18T21:47:28.413Z,51.43
2023-05-18T21:49:55.933Z,52.07
2023-05-18T21:52:23.579Z,52.58
2023-05-18T21:54:51.185Z,52.26
2023-05-18T21:57:18.615Z,52.82
2023-05-18T21:59:46.040Z,53.27
2023-05-18T22:02:13.636Z,52.52
2023-05-18T22:04:41.330Z,52.21
2023-05-18T22:07:08.950Z,53.06
2023-05-18T22:09:36.853Z,53.15
2023-05-18T22:12:04.568Z,52.33
2023-05-18T22:14:32.107Z,53.10
2023-05-18T22:16:59.650Z,52.67
2023-05-18T22:19:27.235Z,51.92
2023-05-18T22:21:54.837Z,52.65
2023-05-18T22:24:22.299Z,53.20
2023-05-18T22:26:49.886Z,52.56
2023-05-18T22:29:17.482Z,53.04
2023-05-18T22:31:45.247Z,52.84
2023-05-18T22:34:12.909Z,52.55
2023-05-18T22:36:40.425Z,52.56
2023-05-18T22:39:09.062Z,52.39
2023-05-18T22:41:36.604Z,52.43
2023-05-18T22:44:04.118Z,52.05
2023-05-18T22:46:31.615Z,52.41
2023-05-18T22:48:59.306Z,52.23
2023-05-18T22:51:26.714Z,52.33
2023-05-18T22:53:56.190Z,51.78
2023-05-18T22:56:23.651Z,52.07
2023-05-18T22:58:51.716Z,52.48
2023-05-18T23:01:19.089Z,52.14
2023-05-18T23:03:46.608Z,52.33
2023-05-18T23:06:14.131Z,52.79
2023-05-18T23:08:41.511Z,52.63
2023-05-18T23:11:09.108Z,52.96
2023-05-18T23:13:37.824Z,52.47
2023-05-18T23:16:06.318Z,52.62
2023-05-18T23:18:33.920Z,52.54
2023-05-18T23:21:01.300Z,52.66
2023-05-18T23:23:28.871Z,52.26
2023-05-18T23:25:57.294Z,52.82
2023-05-18T23:28:24.692Z,52.84
2023-05-18T23:30:52.158Z,52.69
2023-05-18T23:33:20.350Z,53.15
2023-05-18T23:35:50.617Z,52.03
2023-05-18T23:38:22.068Z,51.94
2023-05-18T23:40:52.929Z,53.64
2023-05-18T23:43:20.644Z,53.42
2023-05-18T23:45:48.386Z,53.67
2023-05-18T23:48:16.055Z,54.92
2023-05-18T23:50:44.110Z,54.94
2023-05-18T23:53:15.213Z,55.59
2023-05-18T23:55:42.924Z,56.94
2023-05-18T23:58:10.637Z,55.82
